createdAt,value
2018-03-21T00:02:12.490Z,8.90
2018-03-21T00:04:48.131Z,8.90
2018-03-21T00:07:23.773Z,8.80
2018-03-21T00:09:59.774Z,8.80
2018-03-21T00:12:36.283Z,8.80
2018-03-21T00:15:11.900Z,8.60
2018-03-21T00:17:47.415Z,8.70
2018-03-21T00:20:23.407Z,8.60
2018-03-21T00:22:58.935Z,8.60
2018-03-21T00:25:35.055Z,8.60
2018-03-21T00:28:10.327Z,8.50
2018-03-21T00:30:46.689Z,8.50
2018-03-21T00:33:22.210Z,8.40
2018-03-21T00:35:57.850Z,8.40
2018-03-21T00:38:33.733Z,8.40
2018-03-21T00:41:10.342Z,8.30
2018-03-21T00:43:46.212Z,8.30
2018-03-21T00:46:22.090Z,8.30
2018-03-21T00:48:58.450Z,8.30
2018-03-21T00:51:34.823Z,8.20
2018-03-21T00:54:11.531Z,8.30
2018-03-21T00:56:47.651Z,8.20
2018-03-21T00:59:23.536Z,8.20
2018-03-21T01:02:10.928Z,8.20
2018-03-21T01:04:47.430Z,8.10
2018-03-21T01:07:22.647Z,8.10
2018-03-21T01:09:58.430Z,8.10
2018-03-21T01:12:34.236Z,8.10
2018-03-21T01:15:09.722Z,8.10
2018-03-21T01:17:45.643Z,8.10
2018-03-21T01:20:21.952Z,8.00
2018-03-21T01:22:57.811Z,8.00
2018-03-21T01:25:32.831Z,8.00
2018-03-21T01:28:08.653Z,8.00
2018-03-21T01:30:44.119Z,8.00
2018-03-21T01:33:19.985Z,8.00
2018-03-21T01:35:55.819Z,8.00
2018-03-21T01:38:32.522Z,8.10
2018-03-21T01:41:08.162Z,8.00
2018-03-21T01:43:43.401Z,8.00
2018-03-21T01:46:19.870Z,8.10
2018-03-21T01:48:54.904Z,8.10
2018-03-21T01:51:30.348Z,8.10
2018-03-21T01:54:06.001Z,8.10
2018-03-21T01:56:41.648Z,8.20
2018-03-21T01:59:17.922Z,8.20
2018-03-21T02:01:53.357Z,8.20
2018-03-21T02:04:29.010Z,8.20
2018-03-21T02:07:03.844Z,8.20
2018-03-21T02:09:38.667Z,8.20
2018-03-21T02:12:13.501Z,8.20
2018-03-21T02:14:49.150Z,8.10
2018-03-21T02:17:24.183Z,8.10
2018-03-21T02:19:59.831Z,8.10
2018-03-21T02:22:35.687Z,8.10
2018-03-21T02:25:11.334Z,8.00
2018-03-21T02:27:46.377Z,8.10
2018-03-21T02:30:22.022Z,8.10
2018-03-21T02:32:57.814Z,8.10
2018-03-21T02:35:33.524Z,8.00
2018-03-21T02:38:09.174Z,8.00
2018-03-21T02:40:44.618Z,8.00
2018-03-21T02:43:19.389Z,8.00
2018-03-21T02:45:55.199Z,8.00
2018-03-21T02:48:30.239Z,7.90
2018-03-21T02:51:05.989Z,8.00
2018-03-21T02:53:41.543Z,7.90
2018-03-21T02:56:18.011Z,7.90
2018-03-21T02:58:53.143Z,7.90
2018-03-21T03:01:28.995Z,8.00
2018-03-21T03:04:04.440Z,7.90
2018-03-21T03:06:40.094Z,7.90
2018-03-21T03:09:15.739Z,7.90
2018-03-21T03:11:50.568Z,7.90
2018-03-21T03:14:25.397Z,8.00
2018-03-21T03:17:00.432Z,7.90
2018-03-21T03:19:36.697Z,7.90
2018-03-21T03:22:11.943Z,7.90
2018-03-21T03:24:47.175Z,7.90
2018-03-21T03:27:22.216Z,7.90
2018-03-21T03:29:57.659Z,7.90
2018-03-21T03:32:32.505Z,7.90
2018-03-21T03:35:07.523Z,7.90
2018-03-21T03:37:43.799Z,7.90
2018-03-21T03:40:18.617Z,7.80
2018-03-21T03:43:00.208Z,7.90
2018-03-21T03:45:35.342Z,7.90
2018-03-21T03:48:11.197Z,7.90
2018-03-21T03:50:46.852Z,7.90
2018-03-21T03:53:22.496Z,7.90
2018-03-21T03:55:57.329Z,7.90
2018-03-21T03:58:32.974Z,7.90
2018-03-21T04:01:07.808Z,8.00
2018-03-21T04:03:42.643Z,7.90
2018-03-21T04:06:18.285Z,7.90
2018-03-21T04:08:54.547Z,8.00
2018-03-21T04:11:30.402Z,8.00
2018-03-21T04:14:05.443Z,8.00
2018-03-21T04:16:41.086Z,7.90
2018-03-21T04:19:16.841Z,7.90
2018-03-21T04:21:52.505Z,7.90
2018-03-21T04:24:28.758Z,7.90
2018-03-21T04:27:03.791Z,7.80
2018-03-21T04:29:39.443Z,7.80
2018-03-21T04:32:14.268Z,7.80
2018-03-21T04:34:49.919Z,7.80
2018-03-21T04:37:24.747Z,7.80
2018-03-21T04:40:00.195Z,7.80
2018-03-21T04:42:35.436Z,7.70
2018-03-21T04:45:11.286Z,7.60
2018-03-21T04:47:46.934Z,7.50
2018-03-21T04:50:22.584Z,7.60
2018-03-21T04:52:58.391Z,7.60
2018-03-21T04:55:33.891Z,7.60
2018-03-21T04:58:09.533Z,7.60
2018-03-21T05:00:45.183Z,7.60
2018-03-21T05:03:20.426Z,7.60
2018-03-21T05:05:55.265Z,7.70
2018-03-21T05:08:30.705Z,7.70
2018-03-21T05:11:06.348Z,7.60
2018-03-21T05:13:42.001Z,7.60
2018-03-21T05:16:18.008Z,7.70
2018-03-21T05:18:54.328Z,7.70
2018-03-21T05:21:29.153Z,7.70
2018-03-21T05:24:04.185Z,7.80
2018-03-21T05:26:39.631Z,7.80
2018-03-21T05:29:14.466Z,7.80
2018-03-21T05:31:50.929Z,7.80
2018-03-21T05:34:25.962Z,7.80
2018-03-21T05:37:00.793Z,7.80
2018-03-21T05:39:36.447Z,7.90
2018-03-21T05:42:11.288Z,7.90
2018-03-21T05:44:46.106Z,7.90
2018-03-21T05:47:21.137Z,7.90
2018-03-21T05:49:56.741Z,7.90
2018-03-21T05:52:32.496Z,7.80
2018-03-21T05:55:07.994Z,7.90
2018-03-21T05:57:42.968Z,7.90
2018-03-21T06:00:17.850Z,7.90
2018-03-21T06:02:52.619Z,7.90
2018-03-21T06:05:27.509Z,8.00
2018-03-21T06:08:03.161Z,7.90
2018-03-21T06:10:39.628Z,7.90
2018-03-21T06:13:14.457Z,7.90
2018-03-21T06:15:49.328Z,8.00
2018-03-21T06:18:24.938Z,8.00
2018-03-21T06:20:59.603Z,8.00
2018-03-21T06:23:34.494Z,8.10
2018-03-21T06:26:09.325Z,8.10
2018-03-21T06:28:44.367Z,8.20
2018-03-21T06:31:19.811Z,8.20
2018-03-21T06:33:56.273Z,8.30
2018-03-21T06:36:31.110Z,8.30
2018-03-21T06:39:06.755Z,8.30
2018-03-21T06:41:42.814Z,8.40
2018-03-21T06:44:18.055Z,8.40
2018-03-21T06:46:53.505Z,8.40
2018-03-21T06:49:28.433Z,8.40
2018-03-21T06:52:04.184Z,8.50
2018-03-21T06:54:39.218Z,8.50
2018-03-21T06:57:14.868Z,8.60
2018-03-21T06:59:50.620Z,8.70
2018-03-21T07:02:25.656Z,8.70
2018-03-21T07:05:01.307Z,8.80
2018-03-21T07:07:36.956Z,8.80
2018-03-21T07:10:12.606Z,8.90
2018-03-21T07:12:48.048Z,9.10
2018-03-21T07:15:35.580Z,9.80
2018-03-21T07:18:10.715Z,11.10
2018-03-21T07:20:45.754Z,12.70
2018-03-21T07:23:27.070Z,13.40
2018-03-21T07:26:02.681Z,14.00
2018-03-21T07:28:37.818Z,14.00
2018-03-21T07:31:14.223Z,15.70
2018-03-21T07:33:49.935Z,15.70
2018-03-21T07:36:25.687Z,17.00
2018-03-21T07:39:01.343Z,17.00
2018-03-21T07:41:37.190Z,16.90
2018-03-21T07:44:12.991Z,16.60
2018-03-21T07:46:48.850Z,16.70
2018-03-21T07:49:24.553Z,17.90
2018-03-21T07:52:00.201Z,19.30
2018-03-21T07:54:35.029Z,19.50
2018-03-21T07:57:10.065Z,19.40
2018-03-21T07:59:45.863Z,19.70
2018-03-21T08:02:21.376Z,20.50
2018-03-21T08:04:57.420Z,18.30
2018-03-21T08:07:32.864Z,17.60
2018-03-21T08:10:08.926Z,18.70
2018-03-21T08:12:44.265Z,17.70
2018-03-21T08:15:19.709Z,18.70
2018-03-21T08:17:55.566Z,19.10
2018-03-21T08:20:31.213Z,19.80
2018-03-21T08:23:07.682Z,21.10
2018-03-21T08:25:43.331Z,21.10
2018-03-21T08:28:18.167Z,19.60
2018-03-21T08:30:53.814Z,16.50
2018-03-21T08:33:29.603Z,15.80
2018-03-21T08:36:05.522Z,15.40
2018-03-21T08:38:40.968Z,15.00
2018-03-21T08:41:16.823Z,14.20
2018-03-21T08:43:52.272Z,14.70
2018-03-21T08:46:27.102Z,14.00
2018-03-21T08:49:03.744Z,14.20
2018-03-21T08:51:38.905Z,15.00
2018-03-21T08:54:14.556Z,14.90
2018-03-21T08:56:58.191Z,14.70
2018-03-21T08:59:33.131Z,14.60
2018-03-21T09:02:08.879Z,14.20
2018-03-21T09:04:44.528Z,13.60
2018-03-21T09:07:20.324Z,13.50
2018-03-21T09:09:55.848Z,13.60
2018-03-21T09:12:31.419Z,13.20
2018-03-21T09:15:06.920Z,13.00
2018-03-21T09:17:42.577Z,13.50
2018-03-21T09:20:18.423Z,14.10
2018-03-21T09:22:54.115Z,14.40
2018-03-21T09:25:28.909Z,14.30
2018-03-21T09:28:04.553Z,14.50
2018-03-21T09:30:39.689Z,14.20
2018-03-21T09:33:15.137Z,14.30
2018-03-21T09:35:49.965Z,13.50
2018-03-21T09:38:25.002Z,13.80
2018-03-21T09:41:00.451Z,14.30
2018-03-21T09:43:36.298Z,13.60
2018-03-21T09:46:12.153Z,12.80
2018-03-21T09:48:47.804Z,12.70
2018-03-21T09:51:23.429Z,12.80
2018-03-21T09:53:59.817Z,13.10
2018-03-21T09:56:35.878Z,13.00
2018-03-21T09:59:10.916Z,13.00
2018-03-21T10:01:45.742Z,12.90
2018-03-21T10:04:22.006Z,13.30
2018-03-21T10:06:57.046Z,13.30
2018-03-21T10:09:32.069Z,13.00
2018-03-21T10:12:07.520Z,12.70
2018-03-21T10:14:42.555Z,12.90
2018-03-21T10:17:18.274Z,13.00
2018-03-21T10:19:53.861Z,13.30
2018-03-21T10:22:29.509Z,13.50
2018-03-21T10:25:04.336Z,13.60
2018-03-21T10:27:40.016Z,13.20
2018-03-21T10:30:15.632Z,13.60
2018-03-21T10:32:51.291Z,14.00
2018-03-21T10:35:26.729Z,14.10
2018-03-21T10:38:01.561Z,13.80
2018-03-21T10:40:36.592Z,13.80
2018-03-21T10:43:12.250Z,13.70
2018-03-21T10:45:47.892Z,13.80
2018-03-21T10:48:23.543Z,14.20
2018-03-21T10:50:59.195Z,14.20
2018-03-21T10:53:34.024Z,14.20
2018-03-21T10:56:09.671Z,14.20
2018-03-21T10:58:44.705Z,13.90
2018-03-21T11:01:25.518Z,13.40
2018-03-21T11:04:00.820Z,13.50
2018-03-21T11:06:36.263Z,13.70
2018-03-21T11:09:12.016Z,13.90
2018-03-21T11:11:47.675Z,14.20
2018-03-21T11:14:22.500Z,14.30
2018-03-21T11:16:58.962Z,13.90
2018-03-21T11:19:34.154Z,13.90
2018-03-21T11:22:09.850Z,14.00
2018-03-21T11:24:46.524Z,14.40
2018-03-21T11:27:22.173Z,14.40
2018-03-21T11:29:57.009Z,14.30
2018-03-21T11:32:32.559Z,14.60
2018-03-21T11:35:07.283Z,14.90
2018-03-21T11:37:42.480Z,14.70
2018-03-21T11:40:18.730Z,14.60
2018-03-21T11:42:55.443Z,14.70
2018-03-21T11:45:31.334Z,14.70
2018-03-21T11:48:06.654Z,14.50
2018-03-21T11:50:43.130Z,14.90
2018-03-21T11:53:17.957Z,14.90
2018-03-21T11:55:53.603Z,14.80
2018-03-21T11:58:29.255Z,14.80
2018-03-21T12:01:05.723Z,15.10
2018-03-21T12:03:41.679Z,15.00
2018-03-21T12:06:17.543Z,15.50
2018-03-21T12:08:53.915Z,18.10
2018-03-21T12:11:29.653Z,18.10
2018-03-21T12:14:06.281Z,19.40
2018-03-21T12:16:42.182Z,19.50
2018-03-21T12:19:18.035Z,19.30
2018-03-21T12:21:53.477Z,19.50
2018-03-21T12:24:29.958Z,19.70
2018-03-21T12:27:04.778Z,19.70
2018-03-21T12:29:39.606Z,19.60
2018-03-21T12:32:14.783Z,19.50
2018-03-21T12:34:50.112Z,18.60
2018-03-21T12:37:25.538Z,17.40
2018-03-21T12:40:01.385Z,17.60
2018-03-21T12:42:37.792Z,18.60
2018-03-21T12:45:13.502Z,19.00
2018-03-21T12:47:51.222Z,19.00
2018-03-21T12:50:26.340Z,18.00
2018-03-21T12:53:01.372Z,18.50
2018-03-21T12:55:37.874Z,18.90
2018-03-21T12:58:13.290Z,18.90
2018-03-21T13:00:48.950Z,19.40
2018-03-21T13:03:25.059Z,18.50
2018-03-21T13:06:01.623Z,18.30
2018-03-21T13:08:36.705Z,18.30
2018-03-21T13:11:12.566Z,18.60
2018-03-21T13:13:48.044Z,17.90
2018-03-21T13:16:23.962Z,18.90
2018-03-21T13:18:58.990Z,18.80
2018-03-21T13:21:34.439Z,18.40
2018-03-21T13:24:10.111Z,18.20
2018-03-21T13:26:45.295Z,18.30
2018-03-21T13:29:20.974Z,18.40
2018-03-21T13:31:56.316Z,18.40
2018-03-21T13:34:31.147Z,18.20
2018-03-21T13:37:05.950Z,18.00
2018-03-21T13:39:40.960Z,18.30
2018-03-21T13:42:16.047Z,18.30
2018-03-21T13:44:50.877Z,18.80
2018-03-21T13:47:26.134Z,19.10
2018-03-21T13:50:02.794Z,19.00
2018-03-21T13:52:38.239Z,19.10
2018-03-21T13:55:13.271Z,19.60
2018-03-21T13:57:48.940Z,19.20
2018-03-21T14:00:24.570Z,18.80
2018-03-21T14:02:59.813Z,19.20
2018-03-21T14:05:35.398Z,18.90
2018-03-21T14:08:10.699Z,19.10
2018-03-21T14:10:46.247Z,18.90
2018-03-21T14:13:21.703Z,17.80
2018-03-21T14:15:57.136Z,16.50
2018-03-21T14:18:32.685Z,14.60
2018-03-21T14:21:08.024Z,14.60
2018-03-21T14:23:43.676Z,14.40
2018-03-21T14:26:18.614Z,14.60
2018-03-21T14:28:54.053Z,14.80
2018-03-21T14:31:29.244Z,14.30
2018-03-21T14:34:05.355Z,14.30
2018-03-21T14:36:40.758Z,14.20
2018-03-21T14:39:17.511Z,14.00
2018-03-21T14:41:53.942Z,13.70
2018-03-21T14:44:28.873Z,13.70
2018-03-21T14:47:04.625Z,13.70
2018-03-21T14:49:40.507Z,13.60
2018-03-21T14:52:16.330Z,13.60
2018-03-21T14:54:52.203Z,13.60
2018-03-21T14:57:27.638Z,13.60
2018-03-21T15:00:02.665Z,13.70
2018-03-21T15:02:38.313Z,13.40
2018-03-21T15:05:14.169Z,13.20
2018-03-21T15:07:49.819Z,13.10
2018-03-21T15:10:25.683Z,13.00
2018-03-21T15:13:01.349Z,13.10
2018-03-21T15:15:37.151Z,13.00
2018-03-21T15:18:13.740Z,13.10
2018-03-21T15:20:48.619Z,13.20
2018-03-21T15:23:24.272Z,13.40
2018-03-21T15:25:59.335Z,13.50
2018-03-21T15:28:36.254Z,13.60
2018-03-21T15:31:11.892Z,13.50
2018-03-21T15:33:47.700Z,13.20
2018-03-21T15:36:23.395Z,13.20
2018-03-21T15:38:58.327Z,13.20
2018-03-21T15:41:33.572Z,13.20
2018-03-21T15:44:09.012Z,13.00
2018-03-21T15:46:44.356Z,13.00
2018-03-21T15:49:20.027Z,12.80
2018-03-21T15:51:55.449Z,12.80
2018-03-21T15:54:30.260Z,12.80
2018-03-21T15:57:05.634Z,12.80
2018-03-21T15:59:41.482Z,12.80
2018-03-21T16:02:16.307Z,12.80
2018-03-21T16:04:52.095Z,12.80
2018-03-21T16:07:27.092Z,12.70
2018-03-21T16:10:02.129Z,12.60
2018-03-21T16:12:37.376Z,12.70
2018-03-21T16:15:13.216Z,12.90
2018-03-21T16:17:48.771Z,12.80
2018-03-21T16:20:24.525Z,12.80
2018-03-21T16:22:59.565Z,12.80
2018-03-21T16:25:35.417Z,12.70
2018-03-21T16:28:11.060Z,12.70
2018-03-21T16:30:46.915Z,12.70
2018-03-21T16:33:22.358Z,12.80
2018-03-21T16:35:57.803Z,12.90
2018-03-21T16:38:32.840Z,13.00
2018-03-21T16:41:08.286Z,13.00
2018-03-21T16:43:43.224Z,13.00
2018-03-21T16:46:19.199Z,13.10
2018-03-21T16:48:54.928Z,12.90
2018-03-21T16:51:31.599Z,12.70
2018-03-21T16:54:06.897Z,12.70
2018-03-21T16:56:42.695Z,12.90
2018-03-21T16:59:17.732Z,12.90
2018-03-21T17:01:52.741Z,13.00
2018-03-21T17:04:27.898Z,12.90
2018-03-21T17:07:03.692Z,12.80
2018-03-21T17:09:39.617Z,12.70
2018-03-21T17:12:15.502Z,12.70
2018-03-21T17:14:51.326Z,12.60
2018-03-21T17:17:27.534Z,12.50
2018-03-21T17:20:02.755Z,12.50
2018-03-21T17:22:38.473Z,12.60
2018-03-21T17:25:15.244Z,12.60
2018-03-21T17:27:50.181Z,12.60
2018-03-21T17:30:25.014Z,12.70
2018-03-21T17:33:00.457Z,12.70
2018-03-21T17:35:36.110Z,12.70
2018-03-21T17:38:11.982Z,12.60
2018-03-21T17:40:46.997Z,12.70
2018-03-21T17:43:23.470Z,12.80
2018-03-21T17:45:58.699Z,12.80
2018-03-21T17:48:34.554Z,12.80
2018-03-21T17:51:10.354Z,12.80
2018-03-21T17:53:46.268Z,12.80
2018-03-21T17:56:21.503Z,12.80
2018-03-21T17:58:58.895Z,12.70
2018-03-21T18:01:34.448Z,12.60
2018-03-21T18:04:10.558Z,12.60
2018-03-21T18:06:45.822Z,12.60
2018-03-21T18:09:21.596Z,12.60
2018-03-21T18:11:57.475Z,12.60
2018-03-21T18:14:33.462Z,12.50
2018-03-21T18:17:09.444Z,12.50
2018-03-21T18:19:45.477Z,12.50
2018-03-21T18:22:21.077Z,12.40
2018-03-21T18:24:57.101Z,12.40
2018-03-21T18:27:32.988Z,12.40
2018-03-21T18:30:08.843Z,12.30
2018-03-21T18:32:44.039Z,12.30
2018-03-21T18:35:19.473Z,12.30
2018-03-21T18:37:55.634Z,12.30
2018-03-21T18:40:30.788Z,12.20
2018-03-21T18:43:06.474Z,12.20
2018-03-21T18:45:42.327Z,12.20
2018-03-21T18:48:17.974Z,12.10
2018-03-21T18:50:53.624Z,12.10
2018-03-21T18:53:29.272Z,12.10
2018-03-21T18:56:04.928Z,12.10
2018-03-21T18:58:40.577Z,12.10
2018-03-21T19:01:16.478Z,12.10
2018-03-21T19:03:51.875Z,12.10
2018-03-21T19:06:27.407Z,12.10
2018-03-21T19:09:02.378Z,12.10
2018-03-21T19:11:37.180Z,12.00
2018-03-21T19:14:13.047Z,12.00
2018-03-21T19:16:48.629Z,11.90
2018-03-21T19:19:24.308Z,11.80
2018-03-21T19:22:00.809Z,11.60
2018-03-21T19:24:36.657Z,11.60
2018-03-21T19:27:12.806Z,11.60
2018-03-21T19:29:47.759Z,11.60
2018-03-21T19:32:23.605Z,11.60
2018-03-21T19:34:58.642Z,11.60
2018-03-21T19:37:33.846Z,11.60
2018-03-21T19:40:10.355Z,11.50
2018-03-21T19:42:46.167Z,11.50
2018-03-21T19:45:22.764Z,11.50
2018-03-21T19:47:57.810Z,11.50
2018-03-21T19:50:33.464Z,11.50
2018-03-21T19:53:08.669Z,11.50
2018-03-21T19:55:45.098Z,11.50
2018-03-21T19:58:20.209Z,11.50
2018-03-21T20:00:56.879Z,11.40
2018-03-21T20:03:31.634Z,11.40
2018-03-21T20:06:06.740Z,11.40
2018-03-21T20:08:42.495Z,11.40
2018-03-21T20:11:18.150Z,11.50
2018-03-21T20:13:53.195Z,11.40
2018-03-21T20:16:29.861Z,11.40
2018-03-21T20:19:05.305Z,11.30
2018-03-21T20:21:40.947Z,11.40
2018-03-21T20:24:16.831Z,11.40
2018-03-21T20:26:51.634Z,11.30
2018-03-21T20:29:27.288Z,11.40
2018-03-21T20:32:02.283Z,11.30
2018-03-21T20:34:38.581Z,11.30
2018-03-21T20:37:13.623Z,11.30
2018-03-21T20:39:50.089Z,11.40
2018-03-21T20:42:25.328Z,11.30
2018-03-21T20:45:01.585Z,11.40
2018-03-21T20:47:36.948Z,11.40
2018-03-21T20:50:12.787Z,11.40
2018-03-21T20:52:48.425Z,11.40
2018-03-21T20:55:23.578Z,11.30
2018-03-21T20:57:59.326Z,11.30
2018-03-21T21:00:35.793Z,11.20
2018-03-21T21:03:10.825Z,11.20
2018-03-21T21:05:47.717Z,11.20
2018-03-21T21:08:23.569Z,11.20
2018-03-21T21:11:02.103Z,11.20
2018-03-21T21:13:36.958Z,11.20
2018-03-21T21:16:13.381Z,11.10
2018-03-21T21:18:49.465Z,11.00
2018-03-21T21:21:25.287Z,11.00
2018-03-21T21:24:01.352Z,11.00
2018-03-21T21:26:36.514Z,11.00
2018-03-21T21:29:13.227Z,11.00
2018-03-21T21:31:49.747Z,10.90
2018-03-21T21:34:25.504Z,10.90
2018-03-21T21:37:02.269Z,10.90
2018-03-21T21:39:37.944Z,10.90
2018-03-21T21:42:14.539Z,10.90
2018-03-21T21:44:50.802Z,10.90
2018-03-21T21:47:27.167Z,10.90
2018-03-21T21:50:03.328Z,10.90
2018-03-21T21:52:38.917Z,10.90
2018-03-21T21:55:14.777Z,10.80
2018-03-21T21:57:51.049Z,10.80
2018-03-21T22:00:26.295Z,10.80
2018-03-21T22:03:02.340Z,10.70
2018-03-21T22:05:37.779Z,10.80
2018-03-21T22:08:12.819Z,10.80
2018-03-21T22:10:47.865Z,10.70
2018-03-21T22:13:24.128Z,10.70
2018-03-21T22:15:59.981Z,10.70
2018-03-21T22:18:35.843Z,10.60
2018-03-21T22:21:11.580Z,10.70
2018-03-21T22:23:47.903Z,10.70
2018-03-21T22:26:24.323Z,10.70
2018-03-21T22:28:59.287Z,10.70
2018-03-21T22:31:35.005Z,10.60
2018-03-21T22:34:10.755Z,10.50
2018-03-21T22:36:46.555Z,10.50
2018-03-21T22:39:23.483Z,10.60
2018-03-21T22:41:58.935Z,10.60
2018-03-21T22:44:35.027Z,10.60
2018-03-21T22:47:11.774Z,10.70
2018-03-21T22:49:48.330Z,10.70
2018-03-21T22:52:23.580Z,10.70
2018-03-21T22:54:59.551Z,10.70
2018-03-21T22:57:35.888Z,10.70
2018-03-21T23:00:12.561Z,10.60
2018-03-21T23:02:47.598Z,10.60
2018-03-21T23:05:22.427Z,10.60
2018-03-21T23:08:01.970Z,10.60
2018-03-21T23:10:37.003Z,10.60
2018-03-21T23:13:12.446Z,10.50
2018-03-21T23:15:48.346Z,10.50
2018-03-21T23:18:24.977Z,10.60
2018-03-21T23:21:01.047Z,10.60
2018-03-21T23:23:36.069Z,10.50
2018-03-21T23:26:11.927Z,10.50
2018-03-21T23:28:47.577Z,10.50
2018-03-21T23:31:22.407Z,10.60
2018-03-21T23:33:57.239Z,10.50
2018-03-21T23:36:32.268Z,10.40
2018-03-21T23:39:07.098Z,10.40
2018-03-21T23:41:41.932Z,10.40
2018-03-21T23:44:17.783Z,10.50
2018-03-21T23:46:52.614Z,10.60
2018-03-21T23:49:27.446Z,10.60
2018-03-21T23:52:03.443Z,10.60
2018-03-21T23:54:38.947Z,10.60
2018-03-21T23:57:14.805Z,10.60
2018-03-21T23:59:49.840Z,10.60
